sensor_id;sensor_type;location;lat;lon;timestamp;pressure;altitude;pressure_sealevel;temperature;humidity
77161;BME280;66135;0.000;0.000;2023-04-25T08:33:15;101305.44;;;17.64;61.10
77161;BME280;66135;0.000;0.000;2023-04-25T08:35:40;101309.16;;;17.63;60.99
77161;BME280;66135;0.000;0.000;2023-04-25T08:38:05;101311.31;;;17.59;60.92
77161;BME280;66135;0.000;0.000;2023-04-25T08:40:35;101328.44;;;17.60;60.65
77161;BME280;66135;0.000;0.000;2023-04-25T08:43:03;101317.59;;;17.60;60.27
77161;BME280;66135;0.000;0.000;2023-04-25T08:45:31;101320.31;;;17.60;61.01
77161;BME280;66135;0.000;0.000;2023-04-25T08:47:58;101326.59;;;17.60;61.17
77161;BME280;66135;0.000;0.000;2023-04-25T08:50:24;101331.31;;;17.58;61.30
77161;BME280;66135;0.000;0.000;2023-04-25T08:52:53;101323.19;;;17.58;61.18
77161;BME280;66135;0.000;0.000;2023-04-25T08:55:28;101329.09;;;17.54;60.61
77161;BME280;66135;0.000;0.000;2023-04-25T08:57:54;101336.53;;;17.52;60.49
77161;BME280;66135;0.000;0.000;2023-04-25T09:00:20;101334.13;;;17.49;60.50
77161;BME280;66135;0.000;0.000;2023-04-25T09:02:46;101351.22;;;17.49;60.32
77161;BME280;66135;0.000;0.000;2023-04-25T09:05:14;101359.19;;;17.51;60.55
77161;BME280;66135;0.000;0.000;2023-04-25T09:07:40;101360.91;;;17.52;60.20
77161;BME280;66135;0.000;0.000;2023-04-25T09:10:06;101363.28;;;17.55;60.04
77161;BME280;66135;0.000;0.000;2023-04-25T09:12:31;101364.81;;;17.57;60.10
77161;BME280;66135;0.000;0.000;2023-04-25T09:15:10;101370.75;;;17.61;60.35
77161;BME280;66135;0.000;0.000;2023-04-25T09:17:36;101372.66;;;17.60;60.01
77161;BME280;66135;0.000;0.000;2023-04-25T09:20:10;101381.06;;;17.57;60.29
77161;BME280;66135;0.000;0.000;2023-04-25T09:22:36;101374.97;;;17.55;60.36
77161;BME280;66135;0.000;0.000;2023-04-25T09:25:02;101369.88;;;17.52;60.39
77161;BME280;66135;0.000;0.000;2023-04-25T09:27:29;101379.72;;;17.53;59.81
77161;BME280;66135;0.000;0.000;2023-04-25T09:29:58;101384.25;;;17.53;60.15
77161;BME280;66135;0.000;0.000;2023-04-25T09:32:27;101382.41;;;17.53;60.00
77161;BME280;66135;0.000;0.000;2023-04-25T09:34:54;101391.41;;;17.54;59.49
77161;BME280;66135;0.000;0.000;2023-04-25T09:39:57;101390.06;;;17.58;59.61
77161;BME280;66135;0.000;0.000;2023-04-25T09:42:25;101391.91;;;17.57;59.65
77161;BME280;66135;0.000;0.000;2023-04-25T09:44:56;101392.59;;;17.59;59.88
77161;BME280;66135;0.000;0.000;2023-04-25T09:47:24;101394.47;;;17.59;59.82
77161;BME280;66135;0.000;0.000;2023-04-25T09:49:50;101403.28;;;17.61;59.60
77161;BME280;66135;0.000;0.000;2023-04-25T09:52:20;101405.16;;;17.60;59.54
77161;BME280;66135;0.000;0.000;2023-04-25T09:54:46;101404.47;;;17.58;59.52
77161;BME280;66135;0.000;0.000;2023-04-25T09:57:22;101409.03;;;17.58;59.77
77161;BME280;66135;0.000;0.000;2023-04-25T09:59:53;101402.91;;;17.56;59.59
77161;BME280;66135;0.000;0.000;2023-04-25T10:02:24;101395.47;;;17.58;60.18
77161;BME280;66135;0.000;0.000;2023-04-25T10:04:52;101414.97;;;17.61;60.24
77161;BME280;66135;0.000;0.000;2023-04-25T10:07:27;101407.72;;;17.62;60.81
77161;BME280;66135;0.000;0.000;2023-04-25T10:10:04;101415.19;;;17.68;61.47
77161;BME280;66135;0.000;0.000;2023-04-25T10:12:30;101411.84;;;17.74;61.79
77161;BME280;66135;0.000;0.000;2023-04-25T10:14:58;101407.13;;;17.76;62.26
77161;BME280;66135;0.000;0.000;2023-04-25T10:17:26;101406.81;;;17.79;61.98
77161;BME280;66135;0.000;0.000;2023-04-25T10:19:54;101402.25;;;17.79;62.17
77161;BME280;66135;0.000;0.000;2023-04-25T10:22:32;101401.91;;;17.82;62.29
77161;BME280;66135;0.000;0.000;2023-04-25T10:25:03;101401.59;;;17.85;62.55
77161;BME280;66135;0.000;0.000;2023-04-25T10:27:30;101401.59;;;17.85;63.06
77161;BME280;66135;0.000;0.000;2023-04-25T10:30:08;101408.72;;;17.86;63.04
77161;BME280;66135;0.000;0.000;2023-04-25T10:32:36;101406.84;;;17.87;63.23
77161;BME280;66135;0.000;0.000;2023-04-25T10:35:15;101407.88;;;17.86;62.95
77161;BME280;66135;0.000;0.000;2023-04-25T10:40:26;101416.50;;;17.81;63.61
77161;BME280;66135;0.000;0.000;2023-04-25T10:45:52;101410.22;;;17.81;63.44
77161;BME280;66135;0.000;0.000;2023-04-25T10:48:27;101411.06;;;17.81;63.31
77161;BME280;66135;0.000;0.000;2023-04-25T10:51:09;101409.69;;;17.77;63.09
77161;BME280;66135;0.000;0.000;2023-04-25T10:53:35;101414.06;;;17.78;62.97
77161;BME280;66135;0.000;0.000;2023-04-25T10:56:00;101413.09;;;17.79;62.91
77161;BME280;66135;0.000;0.000;2023-04-25T10:58:34;101413.09;;;17.79;63.01
77161;BME280;66135;0.000;0.000;2023-04-25T11:01:01;101408.66;;;17.78;63.13
77161;BME280;66135;0.000;0.000;2023-04-25T11:03:26;101412.56;;;17.76;63.12
77161;BME280;66135;0.000;0.000;2023-04-25T11:05:52;101406.28;;;17.75;63.05
77161;BME280;66135;0.000;0.000;2023-04-25T11:08:18;101422.53;;;17.75;62.87
77161;BME280;66135;0.000;0.000;2023-04-25T11:11:17;101417.28;;;17.74;63.03
77161;BME280;66135;0.000;0.000;2023-04-25T11:13:43;101419.97;;;17.74;63.10
77161;BME280;66135;0.000;0.000;2023-04-25T11:16:09;101412.56;;;17.76;63.05
77161;BME280;66135;0.000;0.000;2023-04-25T11:18:35;101430.50;;;17.77;62.84
77161;BME280;66135;0.000;0.000;2023-04-25T11:21:00;101420.34;;;17.79;62.86
77161;BME280;66135;0.000;0.000;2023-04-25T11:23:26;101421.38;;;17.78;63.10
77161;BME280;66135;0.000;0.000;2023-04-25T11:25:52;101435.75;;;17.78;63.05
77161;BME280;66135;0.000;0.000;2023-04-25T11:28:21;101417.97;;;17.76;63.08
77161;BME280;66135;0.000;0.000;2023-04-25T11:30:49;101429.13;;;17.73;63.35
77161;BME280;66135;0.000;0.000;2023-04-25T11:33:22;101433.69;;;17.72;63.30
77161;BME280;66135;0.000;0.000;2023-04-25T11:35:55;101442.00;;;17.71;63.48
77161;BME280;66135;0.000;0.000;2023-04-25T11:38:22;101450.94;;;17.71;63.37
77161;BME280;66135;0.000;0.000;2023-04-25T11:40:52;101444.00;;;17.69;63.44
77161;BME280;66135;0.000;0.000;2023-04-25T11:43:20;101444.16;;;17.67;63.44
77161;BME280;66135;0.000;0.000;2023-04-25T11:45:49;101456.84;;;17.67;63.47
77161;BME280;66135;0.000;0.000;2023-04-25T11:48:16;101461.41;;;17.66;63.68
77161;BME280;66135;0.000;0.000;2023-04-25T11:50:42;101476.69;;;17.67;63.43
77161;BME280;66135;0.000;0.000;2023-04-25T11:53:07;101477.50;;;17.68;63.43
77161;BME280;66135;0.000;0.000;2023-04-25T11:55:34;101470.56;;;17.65;63.38
77161;BME280;66135;0.000;0.000;2023-04-25T11:58:00;101472.41;;;17.65;63.37
77161;BME280;66135;0.000;0.000;2023-04-25T12:00:26;101475.13;;;17.65;63.40
77161;BME280;66135;0.000;0.000;2023-04-25T12:02:54;101473.44;;;17.64;63.38
77161;BME280;66135;0.000;0.000;2023-04-25T12:05:20;101465.31;;;17.64;63.08
77161;BME280;66135;0.000;0.000;2023-04-25T12:07:46;101467.69;;;17.67;62.94
77161;BME280;66135;0.000;0.000;2023-04-25T12:10:14;101468.84;;;17.64;63.10
77161;BME280;66135;0.000;0.000;2023-04-25T12:12:45;101471.25;;;17.67;63.19
77161;BME280;66135;0.000;0.000;2023-04-25T12:15:16;101472.94;;;17.68;63.28
77161;BME280;66135;0.000;0.000;2023-04-25T12:17:51;101472.94;;;17.68;63.15
77161;BME280;66135;0.000;0.000;2023-04-25T12:20:21;101477.50;;;17.68;63.47
77161;BME280;66135;0.000;0.000;2023-04-25T12:22:49;101484.81;;;17.67;63.48
77161;BME280;66135;0.000;0.000;2023-04-25T12:25:40;101482.09;;;17.67;63.48
77161;BME280;66135;0.000;0.000;2023-04-25T12:28:21;101479.22;;;17.69;63.33
77161;BME280;66135;0.000;0.000;2023-04-25T12:31:06;101482.91;;;17.68;63.65
77161;BME280;66135;0.000;0.000;2023-04-25T12:33:33;101478.38;;;17.68;63.58
77161;BME280;66135;0.000;0.000;2023-04-25T12:35:59;101483.78;;;17.68;63.73
77161;BME280;66135;0.000;0.000;2023-04-25T12:38:30;101487.50;;;17.67;63.73
77161;BME280;66135;0.000;0.000;2023-04-25T12:40:59;101483.09;;;17.66;63.90
77161;BME280;66135;0.000;0.000;2023-04-25T12:43:25;101483.25;;;17.65;64.10
77161;BME280;66135;0.000;0.000;2023-04-25T12:45:54;101483.94;;;17.67;63.86
77161;BME280;66135;0.000;0.000;2023-04-25T12:48:21;101482.25;;;17.66;63.27
77161;BME280;66135;0.000;0.000;2023-04-25T12:50:47;101481.78;;;17.70;63.42
77161;BME280;66135;0.000;0.000;2023-04-25T12:53:17;101487.19;;;17.70;63.31
77161;BME280;66135;0.000;0.000;2023-04-25T12:55:42;101493.31;;;17.72;63.29
77161;BME280;66135;0.000;0.000;2023-04-25T12:58:08;101489.56;;;17.73;63.23
77161;BME280;66135;0.000;0.000;2023-04-25T13:00:34;101488.06;;;17.71;63.41
77161;BME280;66135;0.000;0.000;2023-04-25T13:02:59;101496.72;;;17.74;63.11
77161;BME280;66135;0.000;0.000;2023-04-25T13:05:25;101482.47;;;17.72;63.10
77161;BME280;66135;0.000;0.000;2023-04-25T13:07:50;101489.75;;;17.72;63.07
77161;BME280;66135;0.000;0.000;2023-04-25T13:10:17;101495.16;;;17.72;63.19
77161;BME280;66135;0.000;0.000;2023-04-25T13:12:43;101501.13;;;17.75;63.47
77161;BME280;66135;0.000;0.000;2023-04-25T13:15:09;101495.69;;;17.75;63.64
77161;BME280;66135;0.000;0.000;2023-04-25T13:17:36;101497.41;;;17.76;63.52
77161;BME280;66135;0.000;0.000;2023-04-25T13:20:02;101504.69;;;17.76;63.21
77161;BME280;66135;0.000;0.000;2023-04-25T13:22:30;101495.00;;;17.73;63.17
77161;BME280;66135;0.000;0.000;2023-04-25T13:24:55;101503.81;;;17.75;63.50
77161;BME280;66135;0.000;0.000;2023-04-25T13:27:21;101503.81;;;17.75;63.49
77161;BME280;66135;0.000;0.000;2023-04-25T13:29:46;101502.31;;;17.73;63.34
77161;BME280;66135;0.000;0.000;2023-04-25T13:32:11;101502.97;;;17.75;63.06
77161;BME280;66135;0.000;0.000;2023-04-25T13:34:37;101506.53;;;17.75;63.53
77161;BME280;66135;0.000;0.000;2023-04-25T13:37:02;101515.69;;;17.74;63.53
77161;BME280;66135;0.000;0.000;2023-04-25T13:39:27;101510.28;;;17.74;63.64
77161;BME280;66135;0.000;0.000;2023-04-25T13:41:53;101509.41;;;17.74;63.60
77161;BME280;66135;0.000;0.000;2023-04-25T13:44:18;101512.13;;;17.74;63.69
77161;BME280;66135;0.000;0.000;2023-04-25T13:46:44;101509.25;;;17.75;63.45
77161;BME280;66135;0.000;0.000;2023-04-25T13:49:11;101502.13;;;17.74;63.43
77161;BME280;66135;0.000;0.000;2023-04-25T13:51:37;101503.13;;;17.73;63.49
77161;BME280;66135;0.000;0.000;2023-04-25T13:54:02;101505.00;;;17.73;63.69
77161;BME280;66135;0.000;0.000;2023-04-25T13:56:28;101505.13;;;17.71;63.74
77161;BME280;66135;0.000;0.000;2023-04-25T13:58:53;101519.88;;;17.69;63.81
77161;BME280;66135;0.000;0.000;2023-04-25T14:01:19;101512.59;;;17.69;63.62
77161;BME280;66135;0.000;0.000;2023-04-25T14:03:46;101513.44;;;17.70;63.61
77161;BME280;66135;0.000;0.000;2023-04-25T14:06:11;101501.06;;;17.67;63.63
77161;BME280;66135;0.000;0.000;2023-04-25T14:08:38;101507.31;;;17.68;63.65
77161;BME280;66135;0.000;0.000;2023-04-25T14:11:03;101501.06;;;17.67;63.53
77161;BME280;66135;0.000;0.000;2023-04-25T14:13:29;101497.16;;;17.70;63.47
77161;BME280;66135;0.000;0.000;2023-04-25T14:15:54;101504.47;;;17.69;63.46
77161;BME280;66135;0.000;0.000;2023-04-25T14:18:20;101511.75;;;17.69;63.42
77161;BME280;66135;0.000;0.000;2023-04-25T14:20:46;101505.31;;;17.70;63.43
77161;BME280;66135;0.000;0.000;2023-04-25T14:23:12;101510.72;;;17.70;63.30
77161;BME280;66135;0.000;0.000;2023-04-25T14:25:45;101508.16;;;17.68;63.35
77161;BME280;66135;0.000;0.000;2023-04-25T14:28:10;101508.31;;;17.67;63.39
77161;BME280;66135;0.000;0.000;2023-04-25T14:30:36;101509.34;;;17.66;63.68
77161;BME280;66135;0.000;0.000;2023-04-25T14:33:01;101511.19;;;17.65;63.54
77161;BME280;66135;0.000;0.000;2023-04-25T14:35:27;101521.19;;;17.65;63.61
77161;BME280;66135;0.000;0.000;2023-04-25T14:37:53;101509.63;;;17.63;63.31
77161;BME280;66135;0.000;0.000;2023-04-25T14:40:18;101515.91;;;17.63;63.74
77161;BME280;66135;0.000;0.000;2023-04-25T14:42:47;101518.78;;;17.62;63.63
77161;BME280;66135;0.000;0.000;2023-04-25T14:45:12;101522.47;;;17.61;63.54
77161;BME280;66135;0.000;0.000;2023-04-25T14:47:38;101526.91;;;17.62;63.45
77161;BME280;66135;0.000;0.000;2023-04-25T14:50:04;101526.22;;;17.60;63.57
77161;BME280;66135;0.000;0.000;2023-04-25T14:52:29;101529.09;;;17.58;63.53
77161;BME280;66135;0.000;0.000;2023-04-25T14:54:55;101521.94;;;17.57;63.39
77161;BME280;66135;0.000;0.000;2023-04-25T14:57:21;101526.22;;;17.60;63.89
77161;BME280;66135;0.000;0.000;2023-04-25T14:59:46;101516.06;;;17.62;63.59
77161;BME280;66135;0.000;0.000;2023-04-25T15:02:12;101506.94;;;17.63;63.88
77161;BME280;66135;0.000;0.000;2023-04-25T15:04:37;101515.75;;;17.65;63.53
77161;BME280;66135;0.000;0.000;2023-04-25T15:07:03;101508.66;;;17.64;63.57
77161;BME280;66135;0.000;0.000;2023-04-25T15:09:29;101515.91;;;17.63;63.62
77161;BME280;66135;0.000;0.000;2023-04-25T15:11:54;101502.53;;;17.62;63.24
77161;BME280;66135;0.000;0.000;2023-04-25T15:14:20;101510.66;;;17.62;62.98
77161;BME280;66135;0.000;0.000;2023-04-25T15:16:45;101512.66;;;17.60;62.53
77161;BME280;66135;0.000;0.000;2023-04-25T15:19:11;101518.94;;;17.60;62.35
77161;BME280;66135;0.000;0.000;2023-04-25T15:21:36;101530.47;;;17.62;62.34
77161;BME280;66135;0.000;0.000;2023-04-25T15:24:01;101509.78;;;17.61;62.01
77161;BME280;66135;0.000;0.000;2023-04-25T15:26:27;101516.94;;;17.62;61.86
77161;BME280;66135;0.000;0.000;2023-04-25T15:28:53;101516.94;;;17.62;61.83
77161;BME280;66135;0.000;0.000;2023-04-25T15:31:18;101525.91;;;17.63;61.75
77161;BME280;66135;0.000;0.000;2023-04-25T15:33:44;101530.47;;;17.62;61.55
77161;BME280;66135;0.000;0.000;2023-04-25T15:36:10;101520.19;;;17.66;61.81
77161;BME280;66135;0.000;0.000;2023-04-25T15:38:36;101543.06;;;17.71;62.12
77161;BME280;66135;0.000;0.000;2023-04-25T15:41:02;101534.34;;;17.77;61.78
77161;BME280;66135;0.000;0.000;2023-04-25T15:43:27;101535.41;;;17.84;61.28
77161;BME280;66135;0.000;0.000;2023-04-25T15:45:53;101526.81;;;17.89;61.36
77161;BME280;66135;0.000;0.000;2023-04-25T15:48:18;101549.94;;;18.01;61.01
77161;BME280;66135;0.000;0.000;2023-04-25T15:50:44;101546.28;;;18.10;60.88
77161;BME280;66135;0.000;0.000;2023-04-25T15:53:09;101547.91;;;18.21;61.18
77161;BME280;66135;0.000;0.000;2023-04-25T15:55:35;101546.75;;;18.23;61.14
77161;BME280;66135;0.000;0.000;2023-04-25T15:58:01;101552.88;;;18.25;60.58
77161;BME280;66135;0.000;0.000;2023-04-25T16:00:27;101545.41;;;18.27;60.15
77161;BME280;66135;0.000;0.000;2023-04-25T16:02:52;101563.22;;;18.30;60.22
77161;BME280;66135;0.000;0.000;2023-04-25T16:05:18;101565.44;;;18.34;60.75
77161;BME280;66135;0.000;0.000;2023-04-25T16:07:44;101563.72;;;18.43;61.18
77161;BME280;66135;0.000;0.000;2023-04-25T16:10:11;101556.06;;;18.46;61.57
77161;BME280;66135;0.000;0.000;2023-04-25T16:12:38;101556.59;;;18.50;61.68
77161;BME280;66135;0.000;0.000;2023-04-25T16:15:04;101567.31;;;18.51;62.00
77161;BME280;66135;0.000;0.000;2023-04-25T16:17:30;101561.72;;;18.53;61.57
77161;BME280;66135;0.000;0.000;2023-04-25T16:19:57;101565.97;;;18.55;61.98
77161;BME280;66135;0.000;0.000;2023-04-25T16:22:23;101572.63;;;18.61;61.79
77161;BME280;66135;0.000;0.000;2023-04-25T16:24:49;101568.06;;;18.61;62.10
77161;BME280;66135;0.000;0.000;2023-04-25T16:27:15;101568.75;;;18.63;62.22
77161;BME280;66135;0.000;0.000;2023-04-25T16:29:40;101574.88;;;18.65;62.44
77161;BME280;66135;0.000;0.000;2023-04-25T16:32:06;101570.81;;;18.69;62.50
77161;BME280;66135;0.000;0.000;2023-04-25T16:34:32;101573.34;;;18.71;62.51
77161;BME280;66135;0.000;0.000;2023-04-25T16:36:57;101579.47;;;18.73;62.69
77161;BME280;66135;0.000;0.000;2023-04-25T16:39:23;101574.06;;;18.73;62.82
77161;BME280;66135;0.000;0.000;2023-04-25T16:41:49;101571.34;;;18.73;62.75
77161;BME280;66135;0.000;0.000;2023-04-25T16:44:14;101576.44;;;18.76;62.24
77161;BME280;66135;0.000;0.000;2023-04-25T16:46:40;101571.88;;;18.76;62.30
77161;BME280;66135;0.000;0.000;2023-04-25T16:49:06;101580.69;;;18.78;62.32
77161;BME280;66135;0.000;0.000;2023-04-25T16:51:32;101574.63;;;18.84;62.36
77161;BME280;66135;0.000;0.000;2023-04-25T16:53:59;101592.44;;;18.87;62.15
77161;BME280;66135;0.000;0.000;2023-04-25T16:56:25;101579.75;;;18.87;62.05
77161;BME280;66135;0.000;0.000;2023-04-25T16:58:50;101581.44;;;18.88;62.00
77161;BME280;66135;0.000;0.000;2023-04-25T17:01:16;101580.59;;;18.88;62.03
77161;BME280;66135;0.000;0.000;2023-04-25T17:03:53;101583.16;;;18.89;62.02
77161;BME280;66135;0.000;0.000;2023-04-25T17:06:19;101590.44;;;18.89;62.05
77161;BME280;66135;0.000;0.000;2023-04-25T17:08:44;101592.28;;;18.88;61.87
77161;BME280;66135;0.000;0.000;2023-04-25T17:11:09;101588.41;;;18.91;61.97
77161;BME280;66135;0.000;0.000;2023-04-25T17:13:35;101600.78;;;18.93;61.90
77161;BME280;66135;0.000;0.000;2023-04-25T17:16:01;101602.69;;;18.93;62.04
77161;BME280;66135;0.000;0.000;2023-04-25T17:18:27;101601.66;;;18.94;61.95
